ハルビン の空港の天気 - METARとTAF

ハルビン太平国際空港 ( ZYHB / HRB ) - 中国 黒竜江省ハルビン市
飛行場実況気象(Metar)
観測時間07/29 11:00 CST (07/29 03:00 UTC)
風向・風速北北西 2m/s 瞬間風速7m/s
視程10km以上
天気現象
全天の4割程度の雲 雲底高度 790m
気温30℃
湿度59%
気圧1003hPa
METARZYHB 290300Z 34002G07MPS 240V040 9999 SCT026 30/21 Q1003 NOSIG
過去の天気等 Google飛行場航空写真 Wunderground天気予報

過去48時間のMETAR

飛行場予報(TAF)
発表時間: 7/29 05:07 CST (7/28 21:07 UTC)
予報対象時間: 29日8時 CST ~ 30日8時 CST
風向・風速東 3m/s
視程6000m
全天の4割程度の雲 雲底高度 1010m
TAF ZYHB 282107Z 2900/2924 10003MPS 6000 SCT033 TX30/2906Z TN22/2921Z